Flugplatz Walldürn

Für EDEW sind keine METAR/TAF Berichte vorhanden.
Es werden die Flugwettermeldungen vom Flugplatz Niederstetten Airport in 45 km Entfernung angezeigt.

Bericht für ETHN

vom 27.09. um 00:20 UTC

Wind 13 kt aus 240°

Sichtweite 8000 m

schwacher Regen

aufgebrochene Bewölkung in 200 ft

bedeckt in 800 ft

Temperatur 7.0°C

Taupunkt 6.0°C

Luftfeuchtigkeit 93%

Luftdruck 999 hPa

ETHN 270020Z 24013KT 8000 -RA BKN002 OVC008 07/06 Q0999 AMB
Keine Prognose (TAF) verfügbar.
Impressum